Scroll down
FLIGHT INFORMATION
KLM Royal Dutch Airlines

KLM787

At Arrival Gate

KBOS
 TNCM
DATE: 2018-11-20
GATE:  -
GATE DEPARTURE: 14:22
TAKEOFF: 14:36
DATE: 2018-11-20
GATE:  -
LANDING: 18:00
GATE ARRIVAL: 18:05
FLIGHT DATA
Crew: 
Speed: 
505 kts
Altitude: 
39,016 ft
Stage Length: 
1,515.0 nm
Block Time: 
3.7 hrs
Flight Time: 
3.4 hrs
Fuel Used: 
69,055 lb
Cleared Route: CLAWW FENWY BUCYK BRUWN CRACO GROGG ACK MARIG TILED KINER BOVIC FLAMO GUICE LITTL PIERC ROOFE SICKL GECAL BRKZZ DUPAN QNEPA OPAUL YIYYO TRNKY ULUBA
TRACK DATA
50,000 ft 1,000 kts
AIRCRAFT INFO AND CUMULATIVE STATS
Aircraft Type: 
B744
Registration: 
SELCAL: 
KMDR
MSN/LN: 
28459 / 1112
Total Flights: 
9
Total Block Time: 
69.8 hrs
Total Flight Time: 
67.5 hrs
Total Fuel Time: 
1,489,986 lb
DATALINK LOG | Newest first | Current as of: 2020-12-02 21:52:20
LABEL SEQUENCE CONTENT Dn/Up
QD050518:05 28.3▼ Dn
QC002218:00▼ Dn
2U4032TNCM 202100Z 12013KT 070V150 9999 SCT016 SCT030 26/24 Q1015 A2997 NOSIG RMK SHRA W▲ Up
2S4032TNCM▼ Dn
5U4612TNCM 201924Z 09010KT 10SM SCT021 29/23 Q1017▲ Up
5S4612TNCM▼ Dn
QB365214:36▼ Dn
QA221714:22 97.6▼ Dn
2U2210KBOS 201327Z 02010KT 2SM -RA BR FEW006 OVC013 04/03 A2988 RMK AO2 SFC VIS 6 P0002 T00390028▲ Up
2S2210KBOS▼ Dn


AIRCRAFT HISTORY
FLIGHT DATE FLIGHT NO. ORIGIN DESTINATION CLEARED ROUTE BLOCK TIME FLIGHT TIME FUEL USED PILOT
2019-10-14KLM604KLAX EHAM KLAX DOCKR KLIPR KEGGS COOPP ORCKA NNAVY BLAZN LAS BEALE NOOTN BETHL FREDD DICEE DVC HBU HCT OBH KP75G KG81K DLL TVC YSB YVO ROBBE HOIST 5650N 5640N 5630N 5620N PIKIL SOVED NIBOG REMSI BELOX TENSO DESIG ELNOD MAMUL EDUXO LAMIX ROGAG AMVEL DOLAS ENITO DIBAL BUKUT LAMSO ETPOS SUGOL EHAM10.1 hrs9.8 hrs222,052 lbTom Landry
2019-10-03KLM601EHAM KLAX EHAM EH047 EH094 EH034 BERGI AMGOD SUPUR GODOS BINBO ROKAN NEXUS RUGID NINEX BALIX 6120N 6230N 6240N 6150N SAVRY SINGA VP GW YAT QN YQT MPCEG MECNU BYPOR HUDRU UDORY SUZLI WEMAN VURLY DLH ABR RAP DDY OCS URNUW MLF WINEN EEVUN ZAINY GUNTR LAKRR ZZYZX HAKMN SHTNR SMASH SALYY GLESN ANJLL CAANN BOYEL CRCUS KLAX11.5 hrs11.1 hrs269,558 lbTom Landry
2019-03-18KLM606KSFO EHAM KSFO TRUKN DEDHD RBL KS84G KS12I YYC NUDET YWV 5330N11000W 58N00 6130N09000W 6330N08000W ALSAK KENKI AVPUT 6650N 6540N 6330N 6120N GOMUP GINGA GOW TLA ERKIT OTR LIBSO SUPEL DOLAS ENITO DIBAL BUKUT LAMSO ETPOS SUGOL R292O EHAM10.6 hrs10.2 hrs223,121 lbTom Landry
2019-03-11KLM605EHAM KSFO EHAM EH015 BERGI AMGOD SUPUR GODOS BINBO ROKAN TINDI ROLUM ASKAM CUTEL ODMIX FORTY SUM 6410N 6820N 7130N INGUM 7084N 6893N 65N00 62N05 IKLIX YMM YEG YXC BZXIV GEG IMB LKV RBL MRRLO MSCAT BGGLO LOZIT BDEGA CORKK BRIXX EDDYY RW28R10.9 hrs10.4 hrs224,066 lbTom Landry
2018-11-23KLM789TNCC EHAM RW11 OLITO NOXAD SINDA REVOK LUCAS ACORA SILVA ILMET MILOK RAYAS RAFEE ANNER PORQE DANDE PJM MNOLO NEYDU OBIKE RKDIA 3150N 3940N 4330N 4520N REGHI BADUR UPALO EKRAS ARGED LGL DITAL EVX PODEM SOMIL BELDI VEKIN ADUTO FERDI DENUT HSD RIVER R222O8.7 hrs8.4 hrs174,964 lbTom Landry
2018-11-21KLM789TNCM TNCC DER10 DANDE PORQE ANNER RAFEE RAYAS MILOK ILMET SILVA ACORA LUCAS REVOK SINDA1.5 hrs1.3 hrs29,023 lbTom Landry
2018-11-20KLM787KBOS TNCM CLAWW FENWY BUCYK BRUWN CRACO GROGG ACK MARIG TILED KINER BOVIC FLAMO GUICE LITTL PIERC ROOFE SICKL GECAL BRKZZ DUPAN QNEPA OPAUL YIYYO TRNKY ULUBA3.7 hrs3.4 hrs69,055 lbTom Landry
2018-11-17KLM259EHAM KBOS EH053 EH094 EH022 BERGI AMGOD SUPUR MIMVA GETNO REMSI NIBOG PIKIL 5720N 5830N 5840N 5650N JANJO TAFFY ENE7.2 hrs6.9 hrs152,339 lbTom Landry
2018-10-28KLM644KJFK EHAM MERIT HFD PUT TOPPS NEEKO 5450N 5540N 5530N 5420N DOGAL BEXET NIBOG REMSI GETNO HALIF RIMTO BATLI GOLES GIPLO SIVBU VEGUS OTBED SUPEL DOLAS ENITO DIBAL BUKUT LAMSO ETPOS SUGOL R292O6.5 hrs6.1 hrs125,808 lbTom Landry